sensor_id;sensor_type;location;lat;lon;timestamp;P1;durP1;ratioP1;P2;durP2;ratioP2
66437;SDS011;54537;47.972;11.662;2024-01-16T00:01:30;4.05;;;1.55;;
66437;SDS011;54537;47.972;11.662;2024-01-16T00:03:57;4.63;;;1.33;;
66437;SDS011;54537;47.972;11.662;2024-01-16T00:06:25;3.30;;;1.52;;
66437;SDS011;54537;47.972;11.662;2024-01-16T00:08:51;4.63;;;1.33;;
66437;SDS011;54537;47.972;11.662;2024-01-16T00:11:18;6.10;;;1.92;;
66437;SDS011;54537;47.972;11.662;2024-01-16T00:13:44;5.55;;;1.60;;
66437;SDS011;54537;47.972;11.662;2024-01-16T00:16:11;6.32;;;1.55;;
66437;SDS011;54537;47.972;11.662;2024-01-16T00:18:37;5.22;;;1.70;;
66437;SDS011;54537;47.972;11.662;2024-01-16T00:21:04;2.75;;;1.35;;
66437;SDS011;54537;47.972;11.662;2024-01-16T00:23:32;3.72;;;1.40;;
66437;SDS011;54537;47.972;11.662;2024-01-16T00:25:58;4.57;;;1.23;;
66437;SDS011;54537;47.972;11.662;2024-01-16T00:28:25;5.03;;;1.48;;
66437;SDS011;54537;47.972;11.662;2024-01-16T00:30:51;2.22;;;1.33;;
66437;SDS011;54537;47.972;11.662;2024-01-16T00:33:17;5.82;;;2.15;;
66437;SDS011;54537;47.972;11.662;2024-01-16T00:35:44;4.50;;;1.92;;
66437;SDS011;54537;47.972;11.662;2024-01-16T00:38:10;5.03;;;1.60;;
66437;SDS011;54537;47.972;11.662;2024-01-16T00:40:38;3.60;;;1.38;;
66437;SDS011;54537;47.972;11.662;2024-01-16T00:43:05;3.35;;;1.52;;
66437;SDS011;54537;47.972;11.662;2024-01-16T00:45:31;2.95;;;1.30;;
66437;SDS011;54537;47.972;11.662;2024-01-16T00:47:58;2.10;;;0.95;;
66437;SDS011;54537;47.972;11.662;2024-01-16T00:50:25;1.55;;;0.95;;
66437;SDS011;54537;47.972;11.662;2024-01-16T00:52:51;4.10;;;1.63;;
66437;SDS011;54537;47.972;11.662;2024-01-16T00:55:18;4.57;;;1.45;;
66437;SDS011;54537;47.972;11.662;2024-01-16T00:57:46;3.92;;;1.30;;
66437;SDS011;54537;47.972;11.662;2024-01-16T01:00:12;3.40;;;1.40;;
66437;SDS011;54537;47.972;11.662;2024-01-16T01:02:39;2.88;;;1.35;;
66437;SDS011;54537;47.972;11.662;2024-01-16T01:05:06;1.67;;;1.10;;
66437;SDS011;54537;47.972;11.662;2024-01-16T01:07:33;6.43;;;1.52;;
66437;SDS011;54537;47.972;11.662;2024-01-16T01:09:59;1.63;;;1.10;;
66437;SDS011;54537;47.972;11.662;2024-01-16T01:12:27;2.65;;;1.15;;
66437;SDS011;54537;47.972;11.662;2024-01-16T01:14:55;2.92;;;1.35;;
66437;SDS011;54537;47.972;11.662;2024-01-16T01:17:21;3.72;;;1.45;;
66437;SDS011;54537;47.972;11.662;2024-01-16T01:19:47;2.20;;;1.08;;
66437;SDS011;54537;47.972;11.662;2024-01-16T01:22:14;2.78;;;1.38;;
66437;SDS011;54537;47.972;11.662;2024-01-16T01:24:40;5.38;;;1.50;;
66437;SDS011;54537;47.972;11.662;2024-01-16T01:27:07;4.00;;;1.52;;
66437;SDS011;54537;47.972;11.662;2024-01-16T01:29:33;4.70;;;1.55;;
66437;SDS011;54537;47.972;11.662;2024-01-16T01:32:01;4.13;;;1.35;;
66437;SDS011;54537;47.972;11.662;2024-01-16T01:34:28;4.80;;;1.15;;
66437;SDS011;54537;47.972;11.662;2024-01-16T01:36:54;4.78;;;1.85;;
66437;SDS011;54537;47.972;11.662;2024-01-16T01:39:23;6.13;;;1.85;;
66437;SDS011;54537;47.972;11.662;2024-01-16T01:41:49;3.67;;;1.85;;
66437;SDS011;54537;47.972;11.662;2024-01-16T01:44:15;3.72;;;1.48;;
66437;SDS011;54537;47.972;11.662;2024-01-16T01:46:42;2.88;;;1.17;;
66437;SDS011;54537;47.972;11.662;2024-01-16T01:49:10;4.18;;;1.55;;
66437;SDS011;54537;47.972;11.662;2024-01-16T01:51:37;2.58;;;1.20;;
66437;SDS011;54537;47.972;11.662;2024-01-16T01:54:04;5.38;;;1.67;;
66437;SDS011;54537;47.972;11.662;2024-01-16T01:56:30;5.45;;;1.88;;
66437;SDS011;54537;47.972;11.662;2024-01-16T01:58:57;3.25;;;1.20;;
66437;SDS011;54537;47.972;11.662;2024-01-16T02:01:24;4.93;;;1.63;;
66437;SDS011;54537;47.972;11.662;2024-01-16T02:03:52;3.60;;;1.88;;
66437;SDS011;54537;47.972;11.662;2024-01-16T02:06:20;4.78;;;1.92;;
66437;SDS011;54537;47.972;11.662;2024-01-16T02:08:46;3.00;;;1.60;;
66437;SDS011;54537;47.972;11.662;2024-01-16T02:11:13;4.05;;;1.70;;
66437;SDS011;54537;47.972;11.662;2024-01-16T02:13:40;2.83;;;1.15;;
66437;SDS011;54537;47.972;11.662;2024-01-16T02:16:16;5.18;;;1.75;;
66437;SDS011;54537;47.972;11.662;2024-01-16T02:18:43;3.90;;;1.50;;
66437;SDS011;54537;47.972;11.662;2024-01-16T02:21:10;4.90;;;2.05;;
66437;SDS011;54537;47.972;11.662;2024-01-16T02:23:38;3.80;;;1.60;;
66437;SDS011;54537;47.972;11.662;2024-01-16T02:26:05;2.67;;;1.20;;
66437;SDS011;54537;47.972;11.662;2024-01-16T02:28:32;3.10;;;1.52;;
66437;SDS011;54537;47.972;11.662;2024-01-16T02:30:58;5.50;;;1.58;;
66437;SDS011;54537;47.972;11.662;2024-01-16T02:33:25;3.47;;;1.50;;
66437;SDS011;54537;47.972;11.662;2024-01-16T02:35:51;2.33;;;1.35;;
66437;SDS011;54537;47.972;11.662;2024-01-16T02:38:17;3.13;;;1.80;;
66437;SDS011;54537;47.972;11.662;2024-01-16T02:40:45;3.97;;;1.42;;
66437;SDS011;54537;47.972;11.662;2024-01-16T02:43:12;2.83;;;1.38;;
66437;SDS011;54537;47.972;11.662;2024-01-16T02:45:38;5.18;;;2.00;;
66437;SDS011;54537;47.972;11.662;2024-01-16T02:48:05;4.55;;;1.42;;
66437;SDS011;54537;47.972;11.662;2024-01-16T02:50:32;3.55;;;1.33;;
66437;SDS011;54537;47.972;11.662;2024-01-16T02:52:58;3.63;;;1.45;;
66437;SDS011;54537;47.972;11.662;2024-01-16T02:55:25;7.72;;;2.03;;
66437;SDS011;54537;47.972;11.662;2024-01-16T02:57:52;5.68;;;2.08;;
66437;SDS011;54537;47.972;11.662;2024-01-16T03:00:19;4.75;;;1.65;;
66437;SDS011;54537;47.972;11.662;2024-01-16T03:02:47;5.85;;;2.08;;
66437;SDS011;54537;47.972;11.662;2024-01-16T03:05:14;5.90;;;1.92;;
66437;SDS011;54537;47.972;11.662;2024-01-16T03:07:40;5.35;;;1.85;;
66437;SDS011;54537;47.972;11.662;2024-01-16T03:10:07;9.55;;;3.15;;
66437;SDS011;54537;47.972;11.662;2024-01-16T03:12:34;7.25;;;2.40;;
66437;SDS011;54537;47.972;11.662;2024-01-16T03:15:02;3.65;;;1.38;;
66437;SDS011;54537;47.972;11.662;2024-01-16T03:17:28;7.57;;;2.13;;
66437;SDS011;54537;47.972;11.662;2024-01-16T03:19:55;6.72;;;2.35;;
66437;SDS011;54537;47.972;11.662;2024-01-16T03:22:22;3.92;;;1.90;;
66437;SDS011;54537;47.972;11.662;2024-01-16T03:24:49;3.53;;;2.03;;
66437;SDS011;54537;47.972;11.662;2024-01-16T03:27:15;10.15;;;3.13;;
66437;SDS011;54537;47.972;11.662;2024-01-16T03:29:42;8.75;;;2.85;;
66437;SDS011;54537;47.972;11.662;2024-01-16T03:32:10;8.43;;;2.65;;
66437;SDS011;54537;47.972;11.662;2024-01-16T03:34:36;12.65;;;2.92;;
66437;SDS011;54537;47.972;11.662;2024-01-16T03:37:03;11.55;;;3.30;;
66437;SDS011;54537;47.972;11.662;2024-01-16T03:39:29;10.27;;;3.22;;
66437;SDS011;54537;47.972;11.662;2024-01-16T03:41:56;6.95;;;2.08;;
66437;SDS011;54537;47.972;11.662;2024-01-16T03:44:22;6.70;;;2.03;;
66437;SDS011;54537;47.972;11.662;2024-01-16T03:46:49;4.63;;;1.73;;
66437;SDS011;54537;47.972;11.662;2024-01-16T03:49:17;7.00;;;1.90;;
66437;SDS011;54537;47.972;11.662;2024-01-16T03:51:43;4.43;;;1.90;;
66437;SDS011;54537;47.972;11.662;2024-01-16T03:54:11;7.32;;;2.10;;
66437;SDS011;54537;47.972;11.662;2024-01-16T03:56:38;9.65;;;2.88;;
66437;SDS011;54537;47.972;11.662;2024-01-16T03:59:04;8.45;;;2.88;;
66437;SDS011;54537;47.972;11.662;2024-01-16T04:01:30;9.52;;;2.40;;
66437;SDS011;54537;47.972;11.662;2024-01-16T04:03:57;6.00;;;2.42;;
66437;SDS011;54537;47.972;11.662;2024-01-16T04:06:25;6.10;;;1.98;;
66437;SDS011;54537;47.972;11.662;2024-01-16T04:08:54;4.82;;;2.00;;
66437;SDS011;54537;47.972;11.662;2024-01-16T04:11:20;6.22;;;2.13;;
66437;SDS011;54537;47.972;11.662;2024-01-16T04:13:46;9.43;;;2.10;;
66437;SDS011;54537;47.972;11.662;2024-01-16T04:16:13;7.05;;;2.38;;
66437;SDS011;54537;47.972;11.662;2024-01-16T04:18:40;8.88;;;2.15;;
66437;SDS011;54537;47.972;11.662;2024-01-16T04:21:07;7.18;;;2.25;;
66437;SDS011;54537;47.972;11.662;2024-01-16T04:23:35;8.07;;;2.08;;
66437;SDS011;54537;47.972;11.662;2024-01-16T04:26:02;7.15;;;2.33;;
66437;SDS011;54537;47.972;11.662;2024-01-16T04:28:28;8.00;;;2.15;;
66437;SDS011;54537;47.972;11.662;2024-01-16T04:30:55;11.63;;;2.63;;
66437;SDS011;54537;47.972;11.662;2024-01-16T04:33:21;6.05;;;2.08;;
66437;SDS011;54537;47.972;11.662;2024-01-16T04:35:48;3.80;;;1.77;;
66437;SDS011;54537;47.972;11.662;2024-01-16T04:38:14;6.57;;;2.42;;
66437;SDS011;54537;47.972;11.662;2024-01-16T04:40:42;4.90;;;1.65;;
66437;SDS011;54537;47.972;11.662;2024-01-16T04:43:08;5.70;;;1.95;;
66437;SDS011;54537;47.972;11.662;2024-01-16T04:45:35;7.85;;;2.75;;
66437;SDS011;54537;47.972;11.662;2024-01-16T04:48:01;6.45;;;2.10;;
66437;SDS011;54537;47.972;11.662;2024-01-16T04:50:28;5.85;;;2.25;;
66437;SDS011;54537;47.972;11.662;2024-01-16T04:52:56;5.68;;;2.20;;
66437;SDS011;54537;47.972;11.662;2024-01-16T04:55:24;5.80;;;1.48;;
66437;SDS011;54537;47.972;11.662;2024-01-16T04:57:52;5.35;;;1.73;;
66437;SDS011;54537;47.972;11.662;2024-01-16T05:00:19;5.18;;;2.53;;
66437;SDS011;54537;47.972;11.662;2024-01-16T05:02:46;9.32;;;2.65;;
66437;SDS011;54537;47.972;11.662;2024-01-16T05:05:13;6.88;;;2.25;;
66437;SDS011;54537;47.972;11.662;2024-01-16T05:07:40;4.47;;;1.75;;
66437;SDS011;54537;47.972;11.662;2024-01-16T05:10:09;7.25;;;2.20;;
66437;SDS011;54537;47.972;11.662;2024-01-16T05:12:35;6.88;;;2.15;;
66437;SDS011;54537;47.972;11.662;2024-01-16T05:15:03;6.55;;;2.38;;
66437;SDS011;54537;47.972;11.662;2024-01-16T05:17:31;4.93;;;1.90;;
66437;SDS011;54537;47.972;11.662;2024-01-16T05:19:58;8.77;;;3.03;;
66437;SDS011;54537;47.972;11.662;2024-01-16T05:22:24;8.50;;;3.03;;
66437;SDS011;54537;47.972;11.662;2024-01-16T05:24:51;6.78;;;2.40;;
66437;SDS011;54537;47.972;11.662;2024-01-16T05:27:17;6.93;;;2.30;;
66437;SDS011;54537;47.972;11.662;2024-01-16T05:29:44;5.32;;;2.20;;
66437;SDS011;54537;47.972;11.662;2024-01-16T05:32:13;5.05;;;2.17;;
66437;SDS011;54537;47.972;11.662;2024-01-16T05:34:39;4.25;;;2.03;;
66437;SDS011;54537;47.972;11.662;2024-01-16T05:37:06;6.10;;;2.28;;
66437;SDS011;54537;47.972;11.662;2024-01-16T05:39:32;8.57;;;2.17;;
66437;SDS011;54537;47.972;11.662;2024-01-16T05:41:58;6.50;;;2.10;;
66437;SDS011;54537;47.972;11.662;2024-01-16T05:44:25;8.50;;;2.40;;
66437;SDS011;54537;47.972;11.662;2024-01-16T05:46:51;4.90;;;2.17;;
66437;SDS011;54537;47.972;11.662;2024-01-16T05:49:19;9.15;;;2.03;;
66437;SDS011;54537;47.972;11.662;2024-01-16T05:51:46;6.70;;;2.20;;
66437;SDS011;54537;47.972;11.662;2024-01-16T05:54:12;6.80;;;2.60;;
66437;SDS011;54537;47.972;11.662;2024-01-16T05:56:39;9.30;;;3.05;;
66437;SDS011;54537;47.972;11.662;2024-01-16T05:59:05;5.13;;;2.25;;
66437;SDS011;54537;47.972;11.662;2024-01-16T06:01:32;8.55;;;2.53;;
66437;SDS011;54537;47.972;11.662;2024-01-16T06:03:58;5.78;;;2.10;;
66437;SDS011;54537;47.972;11.662;2024-01-16T06:06:26;9.35;;;2.47;;
66437;SDS011;54537;47.972;11.662;2024-01-16T06:08:53;6.80;;;2.70;;
66437;SDS011;54537;47.972;11.662;2024-01-16T06:11:28;8.07;;;2.63;;
66437;SDS011;54537;47.972;11.662;2024-01-16T06:13:55;6.10;;;2.53;;
66437;SDS011;54537;47.972;11.662;2024-01-16T06:16:22;5.85;;;2.75;;
66437;SDS011;54537;47.972;11.662;2024-01-16T06:18:49;5.40;;;2.00;;
66437;SDS011;54537;47.972;11.662;2024-01-16T06:21:16;8.27;;;2.05;;
66437;SDS011;54537;47.972;11.662;2024-01-16T06:23:44;6.53;;;2.72;;
66437;SDS011;54537;47.972;11.662;2024-01-16T06:26:10;8.57;;;2.80;;
66437;SDS011;54537;47.972;11.662;2024-01-16T06:28:37;7.18;;;2.40;;
66437;SDS011;54537;47.972;11.662;2024-01-16T06:31:05;9.25;;;2.95;;
66437;SDS011;54537;47.972;11.662;2024-01-16T06:33:31;6.00;;;1.98;;
66437;SDS011;54537;47.972;11.662;2024-01-16T06:35:58;11.07;;;2.60;;
66437;SDS011;54537;47.972;11.662;2024-01-16T06:38:24;5.60;;;2.38;;
66437;SDS011;54537;47.972;11.662;2024-01-16T06:40:52;6.93;;;2.47;;
66437;SDS011;54537;47.972;11.662;2024-01-16T06:43:18;8.73;;;3.00;;
66437;SDS011;54537;47.972;11.662;2024-01-16T06:45:45;9.07;;;2.50;;
66437;SDS011;54537;47.972;11.662;2024-01-16T06:48:12;6.80;;;2.05;;
66437;SDS011;54537;47.972;11.662;2024-01-16T06:50:38;5.80;;;1.95;;
66437;SDS011;54537;47.972;11.662;2024-01-16T06:53:05;7.75;;;2.35;;
66437;SDS011;54537;47.972;11.662;2024-01-16T06:55:31;9.40;;;2.65;;
66437;SDS011;54537;47.972;11.662;2024-01-16T06:57:59;9.98;;;2.92;;
66437;SDS011;54537;47.972;11.662;2024-01-16T07:00:25;6.97;;;2.03;;
66437;SDS011;54537;47.972;11.662;2024-01-16T07:02:52;7.30;;;2.38;;
66437;SDS011;54537;47.972;11.662;2024-01-16T07:05:19;9.13;;;2.45;;
66437;SDS011;54537;47.972;11.662;2024-01-16T07:07:46;7.15;;;2.88;;
66437;SDS011;54537;47.972;11.662;2024-01-16T07:10:12;8.73;;;3.22;;
66437;SDS011;54537;47.972;11.662;2024-01-16T07:12:43;8.20;;;2.83;;
66437;SDS011;54537;47.972;11.662;2024-01-16T07:15:11;6.72;;;2.78;;
66437;SDS011;54537;47.972;11.662;2024-01-16T07:17:36;8.52;;;2.88;;
66437;SDS011;54537;47.972;11.662;2024-01-16T07:20:03;7.03;;;3.08;;
66437;SDS011;54537;47.972;11.662;2024-01-16T07:22:30;7.20;;;2.45;;
66437;SDS011;54537;47.972;11.662;2024-01-16T07:24:57;6.93;;;2.38;;
66437;SDS011;54537;47.972;11.662;2024-01-16T07:27:23;8.00;;;2.80;;
66437;SDS011;54537;47.972;11.662;2024-01-16T07:29:49;7.88;;;2.40;;
66437;SDS011;54537;47.972;11.662;2024-01-16T07:32:17;7.68;;;2.10;;
66437;SDS011;54537;47.972;11.662;2024-01-16T07:34:44;10.02;;;3.00;;
66437;SDS011;54537;47.972;11.662;2024-01-16T07:37:10;9.13;;;2.72;;
66437;SDS011;54537;47.972;11.662;2024-01-16T07:39:37;7.63;;;2.75;;
66437;SDS011;54537;47.972;11.662;2024-01-16T07:42:03;6.80;;;2.67;;
66437;SDS011;54537;47.972;11.662;2024-01-16T07:44:30;7.97;;;2.78;;
66437;SDS011;54537;47.972;11.662;2024-01-16T07:46:57;7.10;;;2.67;;
66437;SDS011;54537;47.972;11.662;2024-01-16T07:49:24;8.30;;;2.83;;
66437;SDS011;54537;47.972;11.662;2024-01-16T07:51:51;8.63;;;2.28;;
66437;SDS011;54537;47.972;11.662;2024-01-16T07:54:18;10.32;;;2.60;;
66437;SDS011;54537;47.972;11.662;2024-01-16T07:56:44;7.82;;;2.63;;
66437;SDS011;54537;47.972;11.662;2024-01-16T07:59:11;10.75;;;2.50;;
66437;SDS011;54537;47.972;11.662;2024-01-16T08:01:37;7.03;;;2.33;;
66437;SDS011;54537;47.972;11.662;2024-01-16T08:04:04;8.02;;;2.72;;
66437;SDS011;54537;47.972;11.662;2024-01-16T08:06:31;5.70;;;2.28;;
66437;SDS011;54537;47.972;11.662;2024-01-16T08:08:58;8.90;;;2.85;;
66437;SDS011;54537;47.972;11.662;2024-01-16T08:11:24;7.88;;;2.40;;
66437;SDS011;54537;47.972;11.662;2024-01-16T08:13:52;7.13;;;2.63;;
66437;SDS011;54537;47.972;11.662;2024-01-16T08:16:18;5.60;;;2.53;;
66437;SDS011;54537;47.972;11.662;2024-01-16T08:18:45;4.72;;;2.05;;
66437;SDS011;54537;47.972;11.662;2024-01-16T08:21:12;7.10;;;2.33;;
66437;SDS011;54537;47.972;11.662;2024-01-16T08:23:40;9.38;;;2.83;;
66437;SDS011;54537;47.972;11.662;2024-01-16T08:26:07;7.25;;;2.60;;
66437;SDS011;54537;47.972;11.662;2024-01-16T08:28:33;5.68;;;2.38;;
66437;SDS011;54537;47.972;11.662;2024-01-16T08:31:00;8.20;;;2.20;;
66437;SDS011;54537;47.972;11.662;2024-01-16T08:33:27;6.05;;;2.42;;
66437;SDS011;54537;47.972;11.662;2024-01-16T08:35:53;8.57;;;2.50;;
66437;SDS011;54537;47.972;11.662;2024-01-16T08:38:20;7.72;;;2.50;;
66437;SDS011;54537;47.972;11.662;2024-01-16T08:40:47;6.10;;;2.30;;
66437;SDS011;54537;47.972;11.662;2024-01-16T08:43:14;5.15;;;2.58;;
66437;SDS011;54537;47.972;11.662;2024-01-16T08:45:41;7.22;;;2.50;;
66437;SDS011;54537;47.972;11.662;2024-01-16T08:48:07;7.82;;;2.17;;
66437;SDS011;54537;47.972;11.662;2024-01-16T08:50:34;6.03;;;2.33;;
66437;SDS011;54537;47.972;11.662;2024-01-16T08:53:00;9.43;;;2.45;;
66437;SDS011;54537;47.972;11.662;2024-01-16T08:55:27;5.80;;;2.47;;
66437;SDS011;54537;47.972;11.662;2024-01-16T08:57:55;9.18;;;2.40;;
66437;SDS011;54537;47.972;11.662;2024-01-16T09:00:21;8.27;;;2.25;;
66437;SDS011;54537;47.972;11.662;2024-01-16T09:02:48;6.85;;;2.33;;
66437;SDS011;54537;47.972;11.662;2024-01-16T09:05:14;6.93;;;2.45;;
66437;SDS011;54537;47.972;11.662;2024-01-16T09:07:41;6.47;;;2.45;;
66437;SDS011;54537;47.972;11.662;2024-01-16T09:10:08;10.13;;;2.72;;
66437;SDS011;54537;47.972;11.662;2024-01-16T09:12:35;6.55;;;2.70;;
66437;SDS011;54537;47.972;11.662;2024-01-16T09:15:03;6.75;;;2.42;;
66437;SDS011;54537;47.972;11.662;2024-01-16T09:17:30;5.60;;;2.42;;
66437;SDS011;54537;47.972;11.662;2024-01-16T09:19:56;5.30;;;2.30;;
66437;SDS011;54537;47.972;11.662;2024-01-16T09:22:23;5.10;;;2.13;;
66437;SDS011;54537;47.972;11.662;2024-01-16T09:24:49;6.57;;;2.25;;
66437;SDS011;54537;47.972;11.662;2024-01-16T09:27:16;7.75;;;2.75;;
66437;SDS011;54537;47.972;11.662;2024-01-16T09:29:42;4.90;;;2.20;;
66437;SDS011;54537;47.972;11.662;2024-01-16T09:32:10;5.65;;;2.30;;
66437;SDS011;54537;47.972;11.662;2024-01-16T09:34:37;5.70;;;2.25;;
66437;SDS011;54537;47.972;11.662;2024-01-16T09:37:04;6.60;;;2.50;;
66437;SDS011;54537;47.972;11.662;2024-01-16T09:39:31;7.13;;;2.40;;
66437;SDS011;54537;47.972;11.662;2024-01-16T09:41:59;6.15;;;2.58;;
66437;SDS011;54537;47.972;11.662;2024-01-16T09:44:27;7.18;;;2.70;;
66437;SDS011;54537;47.972;11.662;2024-01-16T09:46:53;7.82;;;2.80;;
66437;SDS011;54537;47.972;11.662;2024-01-16T09:49:23;10.95;;;3.00;;
66437;SDS011;54537;47.972;11.662;2024-01-16T09:51:50;11.32;;;3.00;;
66437;SDS011;54537;47.972;11.662;2024-01-16T09:54:16;7.78;;;2.70;;
66437;SDS011;54537;47.972;11.662;2024-01-16T09:56:43;7.05;;;2.80;;
66437;SDS011;54537;47.972;11.662;2024-01-16T09:59:10;8.15;;;2.80;;
66437;SDS011;54537;47.972;11.662;2024-01-16T10:01:38;8.43;;;2.80;;
66437;SDS011;54537;47.972;11.662;2024-01-16T10:04:06;8.05;;;2.47;;
66437;SDS011;54537;47.972;11.662;2024-01-16T10:06:34;7.20;;;2.38;;
66437;SDS011;54537;47.972;11.662;2024-01-16T10:09:01;8.18;;;2.83;;
66437;SDS011;54537;47.972;11.662;2024-01-16T10:11:28;6.95;;;2.47;;
66437;SDS011;54537;47.972;11.662;2024-01-16T10:13:54;6.28;;;2.53;;
66437;SDS011;54537;47.972;11.662;2024-01-16T10:16:22;8.45;;;2.75;;
66437;SDS011;54537;47.972;11.662;2024-01-16T10:18:49;7.07;;;2.40;;
66437;SDS011;54537;47.972;11.662;2024-01-16T10:21:19;7.38;;;2.53;;
66437;SDS011;54537;47.972;11.662;2024-01-16T10:23:48;6.07;;;2.30;;
66437;SDS011;54537;47.972;11.662;2024-01-16T10:26:15;7.28;;;2.38;;
66437;SDS011;54537;47.972;11.662;2024-01-16T10:28:43;6.70;;;2.72;;
66437;SDS011;54537;47.972;11.662;2024-01-16T10:31:10;8.70;;;2.80;;
66437;SDS011;54537;47.972;11.662;2024-01-16T10:33:39;7.95;;;3.33;;
66437;SDS011;54537;47.972;11.662;2024-01-16T10:36:09;6.22;;;2.47;;
66437;SDS011;54537;47.972;11.662;2024-01-16T10:38:37;6.20;;;2.30;;
66437;SDS011;54537;47.972;11.662;2024-01-16T10:41:06;6.72;;;2.83;;
66437;SDS011;54537;47.972;11.662;2024-01-16T10:43:34;9.45;;;3.33;;
66437;SDS011;54537;47.972;11.662;2024-01-16T10:46:06;6.68;;;3.30;;
66437;SDS011;54537;47.972;11.662;2024-01-16T18:25:35;13.23;;;4.72;;
66437;SDS011;54537;47.972;11.662;2024-01-16T18:28:01;14.82;;;5.60;;
66437;SDS011;54537;47.972;11.662;2024-01-16T18:30:29;14.35;;;5.68;;
66437;SDS011;54537;47.972;11.662;2024-01-16T18:32:58;13.60;;;4.72;;
66437;SDS011;54537;47.972;11.662;2024-01-16T18:35:25;13.23;;;4.72;;
66437;SDS011;54537;47.972;11.662;2024-01-16T18:37:52;13.73;;;4.80;;
66437;SDS011;54537;47.972;11.662;2024-01-16T18:40:21;14.15;;;4.65;;
66437;SDS011;54537;47.972;11.662;2024-01-16T18:42:48;16.17;;;5.03;;
66437;SDS011;54537;47.972;11.662;2024-01-16T18:45:15;12.18;;;5.00;;
66437;SDS011;54537;47.972;11.662;2024-01-16T18:47:42;14.13;;;5.22;;
66437;SDS011;54537;47.972;11.662;2024-01-16T18:50:09;17.20;;;6.28;;
66437;SDS011;54537;47.972;11.662;2024-01-16T18:52:36;17.08;;;5.38;;
66437;SDS011;54537;47.972;11.662;2024-01-16T18:55:05;17.27;;;5.78;;
66437;SDS011;54537;47.972;11.662;2024-01-16T18:57:36;15.55;;;6.43;;
66437;SDS011;54537;47.972;11.662;2024-01-16T19:00:05;19.20;;;7.38;;
66437;SDS011;54537;47.972;11.662;2024-01-16T19:02:38;23.38;;;7.97;;
66437;SDS011;54537;47.972;11.662;2024-01-16T21:12:34;7.93;;;3.40;;
66437;SDS011;54537;47.972;11.662;2024-01-16T21:15:02;25.45;;;10.60;;
66437;SDS011;54537;47.972;11.662;2024-01-16T21:17:29;20.92;;;7.53;;
66437;SDS011;54537;47.972;11.662;2024-01-16T21:19:56;19.48;;;6.75;;
66437;SDS011;54537;47.972;11.662;2024-01-16T21:22:22;17.90;;;6.55;;
66437;SDS011;54537;47.972;11.662;2024-01-16T21:24:49;20.83;;;6.60;;
66437;SDS011;54537;47.972;11.662;2024-01-16T21:27:16;14.10;;;5.50;;
66437;SDS011;54537;47.972;11.662;2024-01-16T21:29:42;17.88;;;5.60;;
66437;SDS011;54537;47.972;11.662;2024-01-16T21:32:10;17.17;;;6.00;;
66437;SDS011;54537;47.972;11.662;2024-01-16T21:34:37;13.13;;;5.20;;
66437;SDS011;54537;47.972;11.662;2024-01-16T21:37:03;14.63;;;5.57;;
66437;SDS011;54537;47.972;11.662;2024-01-16T21:39:30;14.55;;;5.10;;
